sensor_id;sensor_type;location;lat;lon;timestamp;P1;durP1;ratioP1;P2;durP2;ratioP2
20336;SDS011;10326;53.660;10.200;2022-12-17T00:01:22;48.53;;;37.57;;
20336;SDS011;10326;53.660;10.200;2022-12-17T00:04:07;50.90;;;39.07;;
20336;SDS011;10326;53.660;10.200;2022-12-17T00:06:51;51.00;;;37.00;;
20336;SDS011;10326;53.660;10.200;2022-12-17T00:09:37;48.93;;;37.63;;
20336;SDS011;10326;53.660;10.200;2022-12-17T00:12:22;46.50;;;35.57;;
20336;SDS011;10326;53.660;10.200;2022-12-17T00:15:06;51.83;;;37.80;;
20336;SDS011;10326;53.660;10.200;2022-12-17T00:17:52;48.80;;;38.77;;
20336;SDS011;10326;53.660;10.200;2022-12-17T00:20:41;50.43;;;37.87;;
20336;SDS011;10326;53.660;10.200;2022-12-17T00:23:22;45.63;;;35.73;;
20336;SDS011;10326;53.660;10.200;2022-12-17T00:26:08;48.00;;;36.17;;
20336;SDS011;10326;53.660;10.200;2022-12-17T00:28:53;47.03;;;36.73;;
20336;SDS011;10326;53.660;10.200;2022-12-17T00:31:38;44.57;;;35.77;;
20336;SDS011;10326;53.660;10.200;2022-12-17T00:34:22;47.90;;;36.07;;
20336;SDS011;10326;53.660;10.200;2022-12-17T00:37:08;46.60;;;35.67;;
20336;SDS011;10326;53.660;10.200;2022-12-17T00:39:53;48.50;;;34.90;;
20336;SDS011;10326;53.660;10.200;2022-12-17T00:42:39;46.60;;;34.67;;
20336;SDS011;10326;53.660;10.200;2022-12-17T00:45:26;45.50;;;35.47;;
20336;SDS011;10326;53.660;10.200;2022-12-17T00:48:10;45.93;;;34.50;;
20336;SDS011;10326;53.660;10.200;2022-12-17T00:50:55;46.77;;;35.83;;
20336;SDS011;10326;53.660;10.200;2022-12-17T00:53:40;45.57;;;34.63;;
20336;SDS011;10326;53.660;10.200;2022-12-17T00:56:24;47.83;;;36.10;;
20336;SDS011;10326;53.660;10.200;2022-12-17T00:59:21;48.57;;;34.73;;
20336;SDS011;10326;53.660;10.200;2022-12-17T01:02:11;47.60;;;36.83;;
20336;SDS011;10326;53.660;10.200;2022-12-17T01:04:57;50.60;;;37.13;;
20336;SDS011;10326;53.660;10.200;2022-12-17T01:07:42;48.13;;;36.80;;
20336;SDS011;10326;53.660;10.200;2022-12-17T01:10:26;48.20;;;36.83;;
20336;SDS011;10326;53.660;10.200;2022-12-17T01:13:12;52.53;;;37.07;;
20336;SDS011;10326;53.660;10.200;2022-12-17T01:16:02;47.50;;;35.83;;
20336;SDS011;10326;53.660;10.200;2022-12-17T01:18:47;47.77;;;36.70;;
20336;SDS011;10326;53.660;10.200;2022-12-17T01:21:31;45.53;;;34.57;;
20336;SDS011;10326;53.660;10.200;2022-12-17T01:24:16;44.97;;;34.53;;
20336;SDS011;10326;53.660;10.200;2022-12-17T01:27:01;44.33;;;34.57;;
20336;SDS011;10326;53.660;10.200;2022-12-17T01:29:45;43.60;;;34.03;;
20336;SDS011;10326;53.660;10.200;2022-12-17T01:32:31;43.63;;;33.10;;
20336;SDS011;10326;53.660;10.200;2022-12-17T01:35:17;43.93;;;33.77;;
20336;SDS011;10326;53.660;10.200;2022-12-17T01:38:02;46.13;;;34.87;;
20336;SDS011;10326;53.660;10.200;2022-12-17T01:40:53;48.57;;;34.97;;
20336;SDS011;10326;53.660;10.200;2022-12-17T01:43:38;45.00;;;35.33;;
20336;SDS011;10326;53.660;10.200;2022-12-17T01:46:22;45.23;;;34.57;;
20336;SDS011;10326;53.660;10.200;2022-12-17T01:49:10;41.57;;;33.60;;
20336;SDS011;10326;53.660;10.200;2022-12-17T01:51:55;46.33;;;35.57;;
20336;SDS011;10326;53.660;10.200;2022-12-17T01:54:41;46.20;;;34.43;;
20336;SDS011;10326;53.660;10.200;2022-12-17T01:57:37;45.70;;;34.50;;
20336;SDS011;10326;53.660;10.200;2022-12-17T02:00:22;47.03;;;35.37;;
20336;SDS011;10326;53.660;10.200;2022-12-17T02:03:10;50.07;;;36.27;;
20336;SDS011;10326;53.660;10.200;2022-12-17T02:05:59;44.50;;;34.40;;
20336;SDS011;10326;53.660;10.200;2022-12-17T02:08:51;46.37;;;36.27;;
20336;SDS011;10326;53.660;10.200;2022-12-17T02:11:47;46.07;;;36.17;;
20336;SDS011;10326;53.660;10.200;2022-12-17T02:14:41;51.07;;;38.20;;
20336;SDS011;10326;53.660;10.200;2022-12-17T02:17:32;45.87;;;34.80;;
20336;SDS011;10326;53.660;10.200;2022-12-17T02:20:23;47.90;;;36.50;;
20336;SDS011;10326;53.660;10.200;2022-12-17T02:23:32;49.43;;;35.03;;
20336;SDS011;10326;53.660;10.200;2022-12-17T02:26:32;45.50;;;35.10;;
20336;SDS011;10326;53.660;10.200;2022-12-17T02:29:16;44.70;;;34.90;;
20336;SDS011;10326;53.660;10.200;2022-12-17T02:32:03;45.10;;;35.40;;
20336;SDS011;10326;53.660;10.200;2022-12-17T02:34:49;44.70;;;34.77;;
20336;SDS011;10326;53.660;10.200;2022-12-17T02:37:36;44.27;;;33.90;;
20336;SDS011;10326;53.660;10.200;2022-12-17T02:40:21;47.77;;;36.20;;
20336;SDS011;10326;53.660;10.200;2022-12-17T02:43:09;43.80;;;34.30;;
20336;SDS011;10326;53.660;10.200;2022-12-17T02:45:54;47.90;;;35.93;;
20336;SDS011;10326;53.660;10.200;2022-12-17T02:48:39;46.97;;;35.43;;
20336;SDS011;10326;53.660;10.200;2022-12-17T02:51:27;45.10;;;34.87;;
20336;SDS011;10326;53.660;10.200;2022-12-17T02:54:11;44.70;;;35.50;;
20336;SDS011;10326;53.660;10.200;2022-12-17T02:56:57;47.47;;;34.50;;
20336;SDS011;10326;53.660;10.200;2022-12-17T02:59:44;40.13;;;32.40;;
20336;SDS011;10326;53.660;10.200;2022-12-17T03:02:30;45.20;;;35.40;;
20336;SDS011;10326;53.660;10.200;2022-12-17T03:05:14;45.43;;;34.40;;
20336;SDS011;10326;53.660;10.200;2022-12-17T03:07:58;46.63;;;35.83;;
20336;SDS011;10326;53.660;10.200;2022-12-17T03:10:51;46.13;;;35.27;;
20336;SDS011;10326;53.660;10.200;2022-12-17T03:13:36;45.90;;;33.83;;
20336;SDS011;10326;53.660;10.200;2022-12-17T03:16:22;44.97;;;33.70;;
20336;SDS011;10326;53.660;10.200;2022-12-17T03:19:07;43.73;;;35.33;;
20336;SDS011;10326;53.660;10.200;2022-12-17T03:21:52;45.63;;;34.57;;
20336;SDS011;10326;53.660;10.200;2022-12-17T03:24:38;46.30;;;35.20;;
20336;SDS011;10326;53.660;10.200;2022-12-17T03:27:22;45.10;;;34.03;;
20336;SDS011;10326;53.660;10.200;2022-12-17T03:30:07;46.63;;;34.60;;
20336;SDS011;10326;53.660;10.200;2022-12-17T03:32:55;44.77;;;34.03;;
20336;SDS011;10326;53.660;10.200;2022-12-17T03:35:39;44.53;;;35.00;;
20336;SDS011;10326;53.660;10.200;2022-12-17T03:38:26;43.90;;;33.97;;
20336;SDS011;10326;53.660;10.200;2022-12-17T03:41:10;44.40;;;33.63;;
20336;SDS011;10326;53.660;10.200;2022-12-17T03:43:55;44.30;;;33.50;;
20336;SDS011;10326;53.660;10.200;2022-12-17T03:46:40;43.53;;;32.67;;
20336;SDS011;10326;53.660;10.200;2022-12-17T03:49:25;41.03;;;31.87;;
20336;SDS011;10326;53.660;10.200;2022-12-17T03:52:10;43.73;;;33.10;;
20336;SDS011;10326;53.660;10.200;2022-12-17T03:54:54;41.77;;;31.90;;
20336;SDS011;10326;53.660;10.200;2022-12-17T03:57:38;41.07;;;34.17;;
20336;SDS011;10326;53.660;10.200;2022-12-17T04:00:31;42.30;;;32.53;;
20336;SDS011;10326;53.660;10.200;2022-12-17T04:03:21;43.10;;;33.50;;
20336;SDS011;10326;53.660;10.200;2022-12-17T04:06:07;46.57;;;34.17;;
20336;SDS011;10326;53.660;10.200;2022-12-17T04:08:51;44.57;;;33.53;;
20336;SDS011;10326;53.660;10.200;2022-12-17T04:11:36;40.40;;;31.07;;
20336;SDS011;10326;53.660;10.200;2022-12-17T04:14:20;42.03;;;31.27;;
20336;SDS011;10326;53.660;10.200;2022-12-17T04:17:13;40.20;;;31.53;;
20336;SDS011;10326;53.660;10.200;2022-12-17T04:19:58;41.37;;;32.00;;
20336;SDS011;10326;53.660;10.200;2022-12-17T04:22:44;37.73;;;30.73;;
20336;SDS011;10326;53.660;10.200;2022-12-17T04:25:28;40.83;;;32.20;;
20336;SDS011;10326;53.660;10.200;2022-12-17T04:28:13;41.50;;;31.57;;
20336;SDS011;10326;53.660;10.200;2022-12-17T04:30:58;37.67;;;31.03;;
20336;SDS011;10326;53.660;10.200;2022-12-17T04:33:42;39.77;;;30.60;;
20336;SDS011;10326;53.660;10.200;2022-12-17T04:36:26;40.20;;;31.47;;
20336;SDS011;10326;53.660;10.200;2022-12-17T04:39:13;38.33;;;30.17;;
20336;SDS011;10326;53.660;10.200;2022-12-17T04:41:57;39.63;;;31.20;;
20336;SDS011;10326;53.660;10.200;2022-12-17T04:44:42;41.10;;;31.63;;
20336;SDS011;10326;53.660;10.200;2022-12-17T04:47:26;39.40;;;29.87;;
20336;SDS011;10326;53.660;10.200;2022-12-17T04:50:11;42.83;;;30.00;;
20336;SDS011;10326;53.660;10.200;2022-12-17T04:52:58;39.00;;;30.60;;
20336;SDS011;10326;53.660;10.200;2022-12-17T04:55:45;40.77;;;31.07;;
20336;SDS011;10326;53.660;10.200;2022-12-17T04:58:30;41.53;;;31.10;;
20336;SDS011;10326;53.660;10.200;2022-12-17T05:01:15;38.60;;;30.20;;
20336;SDS011;10326;53.660;10.200;2022-12-17T05:04:00;40.13;;;30.47;;
20336;SDS011;10326;53.660;10.200;2022-12-17T05:06:44;38.37;;;30.77;;
20336;SDS011;10326;53.660;10.200;2022-12-17T05:09:29;37.27;;;29.57;;
20336;SDS011;10326;53.660;10.200;2022-12-17T05:12:15;39.40;;;30.50;;
20336;SDS011;10326;53.660;10.200;2022-12-17T05:14:59;40.33;;;30.87;;
20336;SDS011;10326;53.660;10.200;2022-12-17T05:17:44;40.00;;;30.50;;
20336;SDS011;10326;53.660;10.200;2022-12-17T05:20:37;36.33;;;29.20;;
20336;SDS011;10326;53.660;10.200;2022-12-17T05:23:21;38.77;;;30.00;;
20336;SDS011;10326;53.660;10.200;2022-12-17T05:26:07;37.87;;;30.37;;
20336;SDS011;10326;53.660;10.200;2022-12-17T05:29:15;39.03;;;30.33;;
20336;SDS011;10326;53.660;10.200;2022-12-17T05:32:00;38.03;;;28.90;;
20336;SDS011;10326;53.660;10.200;2022-12-17T05:34:44;39.07;;;29.10;;
20336;SDS011;10326;53.660;10.200;2022-12-17T05:37:30;35.37;;;29.30;;
20336;SDS011;10326;53.660;10.200;2022-12-17T05:40:15;35.33;;;28.67;;
20336;SDS011;10326;53.660;10.200;2022-12-17T05:43:01;35.57;;;27.43;;
20336;SDS011;10326;53.660;10.200;2022-12-17T05:45:49;37.90;;;28.80;;
20336;SDS011;10326;53.660;10.200;2022-12-17T05:48:42;38.47;;;30.27;;
20336;SDS011;10326;53.660;10.200;2022-12-17T05:51:27;41.73;;;30.53;;
20336;SDS011;10326;53.660;10.200;2022-12-17T05:54:11;36.30;;;28.93;;
20336;SDS011;10326;53.660;10.200;2022-12-17T05:56:56;38.87;;;29.90;;
20336;SDS011;10326;53.660;10.200;2022-12-17T05:59:41;34.67;;;28.30;;
20336;SDS011;10326;53.660;10.200;2022-12-17T06:02:26;37.73;;;29.63;;
20336;SDS011;10326;53.660;10.200;2022-12-17T06:05:11;35.90;;;28.93;;
20336;SDS011;10326;53.660;10.200;2022-12-17T06:08:00;35.17;;;28.53;;
20336;SDS011;10326;53.660;10.200;2022-12-17T06:10:47;35.77;;;28.10;;
20336;SDS011;10326;53.660;10.200;2022-12-17T06:13:32;38.10;;;28.80;;
20336;SDS011;10326;53.660;10.200;2022-12-17T06:16:16;37.13;;;28.30;;
20336;SDS011;10326;53.660;10.200;2022-12-17T06:19:03;37.13;;;28.80;;
20336;SDS011;10326;53.660;10.200;2022-12-17T06:21:50;39.27;;;28.90;;
20336;SDS011;10326;53.660;10.200;2022-12-17T06:24:35;39.40;;;29.07;;
20336;SDS011;10326;53.660;10.200;2022-12-17T06:27:19;36.77;;;28.17;;
20336;SDS011;10326;53.660;10.200;2022-12-17T06:30:04;37.77;;;28.03;;
20336;SDS011;10326;53.660;10.200;2022-12-17T06:32:49;36.10;;;27.20;;
20336;SDS011;10326;53.660;10.200;2022-12-17T06:35:35;36.93;;;28.80;;
20336;SDS011;10326;53.660;10.200;2022-12-17T06:38:20;37.27;;;29.03;;
20336;SDS011;10326;53.660;10.200;2022-12-17T06:41:05;36.10;;;27.70;;
20336;SDS011;10326;53.660;10.200;2022-12-17T06:43:51;35.27;;;27.33;;
20336;SDS011;10326;53.660;10.200;2022-12-17T06:46:36;37.50;;;27.73;;
20336;SDS011;10326;53.660;10.200;2022-12-17T06:49:26;36.30;;;27.43;;
20336;SDS011;10326;53.660;10.200;2022-12-17T06:52:12;35.13;;;28.23;;
20336;SDS011;10326;53.660;10.200;2022-12-17T06:54:57;35.20;;;28.43;;
20336;SDS011;10326;53.660;10.200;2022-12-17T06:57:41;32.57;;;26.23;;
20336;SDS011;10326;53.660;10.200;2022-12-17T07:00:26;34.07;;;25.87;;
20336;SDS011;10326;53.660;10.200;2022-12-17T07:03:10;35.00;;;26.90;;
20336;SDS011;10326;53.660;10.200;2022-12-17T07:05:55;33.17;;;26.47;;
20336;SDS011;10326;53.660;10.200;2022-12-17T07:08:44;33.93;;;27.27;;
20336;SDS011;10326;53.660;10.200;2022-12-17T07:11:32;34.27;;;27.60;;
20336;SDS011;10326;53.660;10.200;2022-12-17T07:14:16;32.10;;;26.23;;
20336;SDS011;10326;53.660;10.200;2022-12-17T07:17:01;32.33;;;25.87;;
20336;SDS011;10326;53.660;10.200;2022-12-17T07:19:45;31.77;;;25.83;;
20336;SDS011;10326;53.660;10.200;2022-12-17T07:22:30;34.53;;;25.67;;
20336;SDS011;10326;53.660;10.200;2022-12-17T07:25:16;33.43;;;26.23;;
20336;SDS011;10326;53.660;10.200;2022-12-17T07:28:00;34.87;;;25.23;;
20336;SDS011;10326;53.660;10.200;2022-12-17T07:30:45;32.67;;;25.40;;
20336;SDS011;10326;53.660;10.200;2022-12-17T07:33:30;34.37;;;25.97;;
20336;SDS011;10326;53.660;10.200;2022-12-17T07:36:14;30.03;;;25.57;;
20336;SDS011;10326;53.660;10.200;2022-12-17T07:38:59;34.00;;;25.67;;
20336;SDS011;10326;53.660;10.200;2022-12-17T07:41:45;33.73;;;26.03;;
20336;SDS011;10326;53.660;10.200;2022-12-17T07:44:29;32.93;;;25.30;;
20336;SDS011;10326;53.660;10.200;2022-12-17T07:47:14;34.83;;;26.77;;
20336;SDS011;10326;53.660;10.200;2022-12-17T07:49:58;31.03;;;25.13;;
20336;SDS011;10326;53.660;10.200;2022-12-17T07:52:43;31.97;;;25.53;;
20336;SDS011;10326;53.660;10.200;2022-12-17T07:55:27;34.43;;;26.13;;
20336;SDS011;10326;53.660;10.200;2022-12-17T07:58:13;32.50;;;25.77;;
20336;SDS011;10326;53.660;10.200;2022-12-17T08:01:00;29.37;;;25.70;;
20336;SDS011;10326;53.660;10.200;2022-12-17T08:03:45;31.13;;;25.00;;
20336;SDS011;10326;53.660;10.200;2022-12-17T08:06:29;31.70;;;24.80;;
20336;SDS011;10326;53.660;10.200;2022-12-17T08:09:14;32.87;;;24.73;;
20336;SDS011;10326;53.660;10.200;2022-12-17T08:11:59;30.67;;;24.10;;
20336;SDS011;10326;53.660;10.200;2022-12-17T08:14:45;30.23;;;24.60;;
20336;SDS011;10326;53.660;10.200;2022-12-17T08:17:29;29.90;;;23.77;;
20336;SDS011;10326;53.660;10.200;2022-12-17T08:20:14;30.20;;;24.50;;
20336;SDS011;10326;53.660;10.200;2022-12-17T08:23:00;32.87;;;24.47;;
20336;SDS011;10326;53.660;10.200;2022-12-17T08:25:45;28.13;;;23.67;;
20336;SDS011;10326;53.660;10.200;2022-12-17T08:28:29;30.40;;;24.00;;
20336;SDS011;10326;53.660;10.200;2022-12-17T08:31:17;29.30;;;23.97;;
20336;SDS011;10326;53.660;10.200;2022-12-17T08:34:02;28.60;;;23.77;;
20336;SDS011;10326;53.660;10.200;2022-12-17T08:36:47;29.47;;;23.67;;
20336;SDS011;10326;53.660;10.200;2022-12-17T08:39:32;28.87;;;23.10;;
20336;SDS011;10326;53.660;10.200;2022-12-17T08:42:16;30.83;;;24.83;;
20336;SDS011;10326;53.660;10.200;2022-12-17T08:45:01;30.40;;;24.00;;
20336;SDS011;10326;53.660;10.200;2022-12-17T08:47:48;27.10;;;23.80;;
20336;SDS011;10326;53.660;10.200;2022-12-17T08:50:33;29.07;;;23.37;;
20336;SDS011;10326;53.660;10.200;2022-12-17T08:53:17;30.17;;;24.53;;
20336;SDS011;10326;53.660;10.200;2022-12-17T08:56:02;28.77;;;23.83;;
20336;SDS011;10326;53.660;10.200;2022-12-17T08:58:47;29.37;;;23.87;;
20336;SDS011;10326;53.660;10.200;2022-12-17T09:01:33;27.93;;;23.73;;
20336;SDS011;10326;53.660;10.200;2022-12-17T09:04:19;29.73;;;23.80;;
20336;SDS011;10326;53.660;10.200;2022-12-17T09:07:04;29.00;;;23.87;;
20336;SDS011;10326;53.660;10.200;2022-12-17T09:09:50;32.30;;;25.53;;
20336;SDS011;10326;53.660;10.200;2022-12-17T09:12:31;30.83;;;24.13;;
20336;SDS011;10326;53.660;10.200;2022-12-17T09:15:16;27.73;;;24.30;;
20336;SDS011;10326;53.660;10.200;2022-12-17T09:18:00;30.00;;;24.60;;
20336;SDS011;10326;53.660;10.200;2022-12-17T09:20:51;31.23;;;25.20;;
20336;SDS011;10326;53.660;10.200;2022-12-17T09:23:36;29.90;;;24.50;;
20336;SDS011;10326;53.660;10.200;2022-12-17T09:26:21;30.07;;;24.83;;
20336;SDS011;10326;53.660;10.200;2022-12-17T09:29:05;32.80;;;25.30;;
20336;SDS011;10326;53.660;10.200;2022-12-17T09:31:50;30.53;;;25.60;;
20336;SDS011;10326;53.660;10.200;2022-12-17T09:34:34;30.90;;;25.67;;
20336;SDS011;10326;53.660;10.200;2022-12-17T09:37:21;33.43;;;26.27;;
20336;SDS011;10326;53.660;10.200;2022-12-17T09:40:07;30.90;;;25.57;;
20336;SDS011;10326;53.660;10.200;2022-12-17T09:42:57;34.97;;;26.90;;
20336;SDS011;10326;53.660;10.200;2022-12-17T09:45:48;31.80;;;25.63;;
20336;SDS011;10326;53.660;10.200;2022-12-17T09:48:48;30.23;;;25.10;;
20336;SDS011;10326;53.660;10.200;2022-12-17T09:51:40;29.37;;;26.17;;
20336;SDS011;10326;53.660;10.200;2022-12-17T09:54:27;32.03;;;26.50;;
20336;SDS011;10326;53.660;10.200;2022-12-17T09:57:17;32.07;;;25.80;;
20336;SDS011;10326;53.660;10.200;2022-12-17T10:00:11;31.33;;;26.20;;
20336;SDS011;10326;53.660;10.200;2022-12-17T10:02:59;33.07;;;27.10;;
20336;SDS011;10326;53.660;10.200;2022-12-17T10:05:45;32.87;;;26.97;;
20336;SDS011;10326;53.660;10.200;2022-12-17T10:08:32;29.93;;;25.27;;
20336;SDS011;10326;53.660;10.200;2022-12-17T10:11:20;31.63;;;26.30;;
20336;SDS011;10326;53.660;10.200;2022-12-17T10:14:11;30.57;;;26.33;;
20336;SDS011;10326;53.660;10.200;2022-12-17T10:17:01;30.80;;;25.70;;
20336;SDS011;10326;53.660;10.200;2022-12-17T10:19:48;31.07;;;26.07;;
20336;SDS011;10326;53.660;10.200;2022-12-17T10:22:40;34.00;;;26.27;;
20336;SDS011;10326;53.660;10.200;2022-12-17T10:25:26;31.43;;;25.33;;
20336;SDS011;10326;53.660;10.200;2022-12-17T10:28:13;32.57;;;26.13;;
20336;SDS011;10326;53.660;10.200;2022-12-17T10:31:00;30.50;;;26.17;;
20336;SDS011;10326;53.660;10.200;2022-12-17T10:33:53;30.77;;;25.90;;
20336;SDS011;10326;53.660;10.200;2022-12-17T10:36:42;31.57;;;26.43;;
20336;SDS011;10326;53.660;10.200;2022-12-17T10:39:28;30.90;;;26.10;;
20336;SDS011;10326;53.660;10.200;2022-12-17T10:42:20;31.23;;;26.60;;
20336;SDS011;10326;53.660;10.200;2022-12-17T10:45:18;31.33;;;26.43;;
20336;SDS011;10326;53.660;10.200;2022-12-17T10:48:15;30.27;;;26.30;;
20336;SDS011;10326;53.660;10.200;2022-12-17T10:51:02;33.87;;;27.03;;
20336;SDS011;10326;53.660;10.200;2022-12-17T10:53:49;32.77;;;25.73;;
20336;SDS011;10326;53.660;10.200;2022-12-17T10:56:35;30.37;;;25.37;;
20336;SDS011;10326;53.660;10.200;2022-12-17T10:59:25;32.10;;;26.27;;
20336;SDS011;10326;53.660;10.200;2022-12-17T11:02:18;29.30;;;26.20;;
20336;SDS011;10326;53.660;10.200;2022-12-17T11:05:11;28.33;;;25.33;;
20336;SDS011;10326;53.660;10.200;2022-12-17T11:07:58;30.53;;;25.57;;
20336;SDS011;10326;53.660;10.200;2022-12-17T11:10:44;29.40;;;26.20;;
20336;SDS011;10326;53.660;10.200;2022-12-17T11:13:31;31.33;;;26.07;;
20336;SDS011;10326;53.660;10.200;2022-12-17T11:16:22;31.70;;;25.60;;
20336;SDS011;10326;53.660;10.200;2022-12-17T11:19:19;31.80;;;25.70;;
20336;SDS011;10326;53.660;10.200;2022-12-17T11:22:22;30.70;;;26.13;;
20336;SDS011;10326;53.660;10.200;2022-12-17T11:25:21;31.10;;;24.97;;
20336;SDS011;10326;53.660;10.200;2022-12-17T11:28:15;27.43;;;24.37;;
20336;SDS011;10326;53.660;10.200;2022-12-17T11:31:14;31.63;;;24.47;;
20336;SDS011;10326;53.660;10.200;2022-12-17T11:34:26;27.73;;;23.90;;
20336;SDS011;10326;53.660;10.200;2022-12-17T11:37:27;29.60;;;23.07;;
20336;SDS011;10326;53.660;10.200;2022-12-17T11:40:20;29.57;;;24.07;;
20336;SDS011;10326;53.660;10.200;2022-12-17T11:43:16;28.30;;;24.23;;
20336;SDS011;10326;53.660;10.200;2022-12-17T11:46:14;27.93;;;23.40;;
20336;SDS011;10326;53.660;10.200;2022-12-17T11:49:15;27.93;;;24.50;;
20336;SDS011;10326;53.660;10.200;2022-12-17T11:52:13;28.83;;;23.97;;
20336;SDS011;10326;53.660;10.200;2022-12-17T11:55:11;27.20;;;24.33;;
20336;SDS011;10326;53.660;10.200;2022-12-17T11:58:04;30.47;;;24.33;;
20336;SDS011;10326;53.660;10.200;2022-12-17T12:00:58;28.27;;;24.00;;
20336;SDS011;10326;53.660;10.200;2022-12-17T12:03:54;29.27;;;24.03;;
20336;SDS011;10326;53.660;10.200;2022-12-17T12:06:51;28.37;;;24.00;;
20336;SDS011;10326;53.660;10.200;2022-12-17T12:09:44;28.63;;;24.87;;
20336;SDS011;10326;53.660;10.200;2022-12-17T12:12:38;29.77;;;26.57;;
20336;SDS011;10326;53.660;10.200;2022-12-17T12:15:39;30.20;;;26.97;;
20336;SDS011;10326;53.660;10.200;2022-12-17T12:18:40;33.07;;;26.47;;
20336;SDS011;10326;53.660;10.200;2022-12-17T12:21:36;30.70;;;26.70;;
20336;SDS011;10326;53.660;10.200;2022-12-17T12:24:38;32.07;;;27.80;;
20336;SDS011;10326;53.660;10.200;2022-12-17T12:27:39;32.43;;;28.30;;
20336;SDS011;10326;53.660;10.200;2022-12-17T12:30:37;31.50;;;27.60;;
20336;SDS011;10326;53.660;10.200;2022-12-17T12:33:29;34.37;;;27.93;;
20336;SDS011;10326;53.660;10.200;2022-12-17T12:36:23;33.90;;;27.98;;
20336;SDS011;10326;53.660;10.200;2022-12-17T12:39:11;32.95;;;29.27;;
20336;SDS011;10326;53.660;10.200;2022-12-17T12:42:02;32.33;;;28.77;;
20336;SDS011;10326;53.660;10.200;2022-12-17T12:44:57;32.90;;;29.45;;
20336;SDS011;10326;53.660;10.200;2022-12-17T12:47:55;32.22;;;28.92;;
20336;SDS011;10326;53.660;10.200;2022-12-17T12:50:47;32.08;;;28.58;;
20336;SDS011;10326;53.660;10.200;2022-12-17T12:53:38;28.20;;;24.92;;
20336;SDS011;10326;53.660;10.200;2022-12-17T12:56:24;27.48;;;24.52;;
20336;SDS011;10326;53.660;10.200;2022-12-17T12:59:23;29.08;;;26.08;;
20336;SDS011;10326;53.660;10.200;2022-12-17T13:02:13;26.95;;;24.10;;
20336;SDS011;10326;53.660;10.200;2022-12-17T13:05:23;25.52;;;22.95;;
20336;SDS011;10326;53.660;10.200;2022-12-17T13:08:17;24.67;;;22.10;;
20336;SDS011;10326;53.660;10.200;2022-12-17T13:10:46;26.25;;;23.52;;
20336;SDS011;10326;53.660;10.200;2022-12-17T13:13:23;25.55;;;22.95;;
20336;SDS011;10326;53.660;10.200;2022-12-17T13:16:00;25.80;;;23.08;;
20336;SDS011;10326;53.660;10.200;2022-12-17T13:18:40;24.30;;;21.23;;
20336;SDS011;10326;53.660;10.200;2022-12-17T13:21:22;23.15;;;20.75;;
20336;SDS011;10326;53.660;10.200;2022-12-17T13:23:53;23.35;;;20.80;;
20336;SDS011;10326;53.660;10.200;2022-12-17T13:26:22;23.85;;;21.15;;
20336;SDS011;10326;53.660;10.200;2022-12-17T13:28:58;23.00;;;20.73;;
20336;SDS011;10326;53.660;10.200;2022-12-17T13:31:32;22.25;;;19.90;;
20336;SDS011;10326;53.660;10.200;2022-12-17T13:34:18;21.45;;;19.23;;
20336;SDS011;10326;53.660;10.200;2022-12-17T13:36:54;21.33;;;19.25;;
20336;SDS011;10326;53.660;10.200;2022-12-17T13:39:34;21.08;;;18.88;;
20336;SDS011;10326;53.660;10.200;2022-12-17T13:42:14;20.70;;;18.48;;
20336;SDS011;10326;53.660;10.200;2022-12-17T13:44:47;18.10;;;16.35;;
20336;SDS011;10326;53.660;10.200;2022-12-17T13:47:24;21.88;;;18.02;;
20336;SDS011;10326;53.660;10.200;2022-12-17T13:49:55;19.05;;;17.15;;
20336;SDS011;10326;53.660;10.200;2022-12-17T13:52:25;19.08;;;17.08;;
20336;SDS011;10326;53.660;10.200;2022-12-17T13:54:53;19.85;;;17.80;;
20336;SDS011;10326;53.660;10.200;2022-12-17T13:57:35;20.73;;;17.55;;
20336;SDS011;10326;53.660;10.200;2022-12-17T14:00:03;18.67;;;16.53;;
20336;SDS011;10326;53.660;10.200;2022-12-17T14:02:39;19.30;;;17.10;;
20336;SDS011;10326;53.660;10.200;2022-12-17T14:05:17;18.50;;;16.60;;
20336;SDS011;10326;53.660;10.200;2022-12-17T14:07:50;19.57;;;16.70;;
20336;SDS011;10326;53.660;10.200;2022-12-17T14:10:18;19.17;;;17.17;;
20336;SDS011;10326;53.660;10.200;2022-12-17T14:12:46;18.37;;;16.47;;
20336;SDS011;10326;53.660;10.200;2022-12-17T14:15:17;19.27;;;17.27;;
20336;SDS011;10326;53.660;10.200;2022-12-17T14:17:51;19.33;;;17.07;;
20336;SDS011;10326;53.660;10.200;2022-12-17T14:20:21;18.77;;;16.83;;
20336;SDS011;10326;53.660;10.200;2022-12-17T14:22:52;20.13;;;17.70;;
20336;SDS011;10326;53.660;10.200;2022-12-17T14:25:25;21.50;;;18.30;;
20336;SDS011;10326;53.660;10.200;2022-12-17T14:27:56;19.37;;;17.37;;
20336;SDS011;10326;53.660;10.200;2022-12-17T14:30:30;18.73;;;16.50;;
20336;SDS011;10326;53.660;10.200;2022-12-17T14:33:04;19.30;;;16.80;;
20336;SDS011;10326;53.660;10.200;2022-12-17T14:35:52;18.50;;;16.60;;
20336;SDS011;10326;53.660;10.200;2022-12-17T14:38:20;18.63;;;16.17;;
20336;SDS011;10326;53.660;10.200;2022-12-17T14:40:48;18.90;;;16.90;;
20336;SDS011;10326;53.660;10.200;2022-12-17T14:43:16;18.17;;;16.27;;
20336;SDS011;10326;53.660;10.200;2022-12-17T14:45:52;18.93;;;16.40;;
20336;SDS011;10326;53.660;10.200;2022-12-17T14:48:54;18.67;;;16.73;;
20336;SDS011;10326;53.660;10.200;2022-12-17T14:51:27;18.17;;;16.07;;
20336;SDS011;10326;53.660;10.200;2022-12-17T14:54:04;19.27;;;16.67;;
20336;SDS011;10326;53.660;10.200;2022-12-17T14:56:42;17.37;;;15.67;;
20336;SDS011;10326;53.660;10.200;2022-12-17T14:59:31;19.03;;;16.77;;
20336;SDS011;10326;53.660;10.200;2022-12-17T15:02:00;18.53;;;16.23;;
20336;SDS011;10326;53.660;10.200;2022-12-17T15:04:36;19.47;;;16.23;;
20336;SDS011;10326;53.660;10.200;2022-12-17T15:07:05;18.37;;;15.30;;
20336;SDS011;10326;53.660;10.200;2022-12-17T15:09:34;18.37;;;15.57;;
20336;SDS011;10326;53.660;10.200;2022-12-17T15:12:01;18.93;;;15.80;;
20336;SDS011;10326;53.660;10.200;2022-12-17T15:14:29;18.27;;;15.80;;
20336;SDS011;10326;53.660;10.200;2022-12-17T15:16:56;17.77;;;15.87;;
20336;SDS011;10326;53.660;10.200;2022-12-17T15:19:25;19.30;;;16.40;;
20336;SDS011;10326;53.660;10.200;2022-12-17T15:21:54;18.03;;;16.13;;
20336;SDS011;10326;53.660;10.200;2022-12-17T15:24:21;16.93;;;15.13;;
20336;SDS011;10326;53.660;10.200;2022-12-17T15:26:48;20.33;;;16.53;;
20336;SDS011;10326;53.660;10.200;2022-12-17T15:29:15;16.10;;;14.40;;
20336;SDS011;10326;53.660;10.200;2022-12-17T15:31:43;17.70;;;15.13;;
20336;SDS011;10326;53.660;10.200;2022-12-17T15:34:10;16.83;;;15.03;;
20336;SDS011;10326;53.660;10.200;2022-12-17T15:36:39;17.80;;;15.60;;
20336;SDS011;10326;53.660;10.200;2022-12-17T15:39:07;17.97;;;15.23;;
20336;SDS011;10326;53.660;10.200;2022-12-17T15:41:35;16.90;;;14.63;;
20336;SDS011;10326;53.660;10.200;2022-12-17T15:44:20;17.07;;;14.27;;
20336;SDS011;10326;53.660;10.200;2022-12-17T15:46:47;16.63;;;14.13;;
20336;SDS011;10326;53.660;10.200;2022-12-17T15:49:14;17.67;;;14.17;;
20336;SDS011;10326;53.660;10.200;2022-12-17T15:51:41;16.43;;;13.20;;